aviador You're here:

CYSC Decoded Metar

SHERBROOKE in QC, CANADA
Report Time2018-04-23 22:00:00
UTC Time2018-04-23 22:51:08
Flight Rules unknown UNKNOWN
Wind230° at 06 kt
W.Decomp.*RWY 32: 1.8 kt HW 5.7 kt LCW
W.Rank230° ranks 8
Current wind is below 230° avg. (6.3)
VisibilityN/A
Phenomena:Shallow Snow Grains
Clouds:N/A
Expected CloudBase > 10,400 ft AGL from Temp-Dew spread
CeilingNone
Temp16°C (ISA +3)
Dew Point-10°C (16% RH)
AAT10.8°C
QNH1026 hPa
Density Alt702 ft
Elevation791 ft
Report Wrong Elevation
Raw Report
CYSC 232200Z AUTO 23006KT 200V270 16/M10 A3031 RMK CLD MISG WX
MISG VIS MISG PCPN MISG SLP273=

Extra information for CYSC:More info

Metar Taf Metar & Taf Last 4 Metars F.Rules Stats Wind Profile Meteogram Temp Stats Airport Information Weather charts Add Link Nearby VenuesMetar ALERT Operation Metar Decoded Social comments